createdAt,value
2019-03-11T00:00:16.634Z,100415.83
2019-03-11T00:02:46.336Z,100405.04
2019-03-11T00:05:15.938Z,100404.89
2019-03-11T00:07:45.579Z,100403.74
2019-03-11T00:10:15.528Z,100409.22
2019-03-11T00:12:45.181Z,100405.12
2019-03-11T00:15:14.771Z,100405.97
2019-03-11T00:17:44.424Z,100400.69
2019-03-11T00:20:14.181Z,100404.79
2019-03-11T00:22:43.932Z,100401.32
2019-03-11T00:25:13.575Z,100398.98
2019-03-11T00:27:43.243Z,100388.09
2019-03-11T00:30:13.102Z,100391.69
2019-03-11T00:32:42.834Z,100377.16
2019-03-11T00:35:12.624Z,100372.55
2019-03-11T00:37:42.413Z,100360.86
2019-03-11T00:40:12.070Z,100378.53
2019-03-11T00:42:41.726Z,100378.53
2019-03-11T00:45:11.974Z,100364.53
2019-03-11T00:47:41.373Z,100364.53
2019-03-11T00:50:11.060Z,100365.70
2019-03-11T00:52:40.575Z,100371.70
2019-03-11T00:55:10.073Z,100370.99
2019-03-11T00:57:39.428Z,100364.16
2019-03-11T01:00:13.267Z,100351.58
2019-03-11T01:02:42.641Z,100355.09
2019-03-11T01:05:12.070Z,100351.89
2019-03-11T01:07:41.445Z,100349.80
2019-03-11T01:10:10.862Z,100349.80
2019-03-11T01:12:40.228Z,100340.20
2019-03-11T01:15:09.731Z,100354.69
2019-03-11T01:17:39.095Z,100354.69
2019-03-11T01:20:08.542Z,100354.96
2019-03-11T01:22:37.911Z,100345.99
2019-03-11T01:25:07.405Z,100339.83
2019-03-11T01:27:36.765Z,100335.73
2019-03-11T01:30:06.293Z,100330.80
2019-03-11T01:32:35.669Z,100325.92
2019-03-11T01:35:05.181Z,100336.97
2019-03-11T01:37:34.633Z,100325.45
2019-03-11T01:40:04.070Z,100323.41
2019-03-11T01:42:33.461Z,100320.81
2019-03-11T01:45:02.899Z,100309.20
2019-03-11T01:47:32.261Z,100302.64
2019-03-11T01:50:01.671Z,100300.60
2019-03-11T01:52:31.064Z,100295.49
2019-03-11T01:55:00.502Z,100284.21
2019-03-11T01:57:29.887Z,100277.91
2019-03-11T01:59:59.293Z,100278.98
2019-03-11T02:02:28.669Z,100283.37
2019-03-11T02:04:58.091Z,100277.56
2019-03-11T02:07:27.478Z,100269.48
2019-03-11T02:09:56.894Z,100269.48
2019-03-11T02:12:26.300Z,100267.45
2019-03-11T02:14:55.735Z,100260.92
2019-03-11T02:17:25.127Z,100252.25
2019-03-11T02:19:54.578Z,100251.89
2019-03-11T02:22:23.991Z,100242.83
2019-03-11T02:24:53.369Z,100237.13
2019-03-11T02:27:22.783Z,100216.37
2019-03-11T02:29:52.174Z,100218.66
2019-03-11T02:32:21.584Z,100221.11
2019-03-11T02:34:50.981Z,100213.13
2019-03-11T02:37:20.445Z,100210.02
2019-03-11T02:39:49.837Z,100208.26
2019-03-11T02:42:19.231Z,100219.44
2019-03-11T02:44:48.598Z,100216.91
2019-03-11T02:47:18.059Z,100209.81
2019-03-11T02:49:47.424Z,100200.47
2019-03-11T02:52:16.948Z,100199.15
2019-03-11T02:54:46.302Z,100199.42
2019-03-11T02:57:15.717Z,100205.77
2019-03-11T02:59:45.125Z,100209.14
2019-03-11T03:02:33.444Z,100206.09
2019-03-11T03:05:21.691Z,100203.13
2019-03-11T03:07:51.146Z,100196.94
2019-03-11T03:10:20.532Z,100171.58
2019-03-11T03:12:49.929Z,100173.02
2019-03-11T03:15:19.293Z,100161.95
2019-03-11T03:17:48.710Z,100160.38
2019-03-11T03:20:18.063Z,100118.16
2019-03-11T03:22:47.454Z,100117.96
2019-03-11T03:25:16.832Z,100129.00
2019-03-11T03:27:46.256Z,100140.95
2019-03-11T03:30:16.799Z,100125.38
2019-03-11T03:32:46.451Z,100125.14
2019-03-11T03:35:16.668Z,100140.03
2019-03-11T03:37:46.149Z,100136.73
2019-03-11T03:40:15.510Z,100142.84
2019-03-11T03:42:45.139Z,100158.16
2019-03-11T03:45:28.378Z,100149.22
2019-03-11T03:47:57.775Z,100153.66
2019-03-11T03:50:27.615Z,100144.39
2019-03-11T03:52:57.045Z,100150.37
2019-03-11T03:55:26.419Z,100163.34
2019-03-11T03:57:55.791Z,100154.02
2019-03-11T04:00:25.128Z,100159.72
2019-03-11T04:02:54.497Z,100161.52
2019-03-11T04:05:23.922Z,100172.25
2019-03-11T04:07:53.324Z,100191.63
2019-03-11T04:10:22.744Z,100192.16
2019-03-11T04:12:52.111Z,100185.79
2019-03-11T04:15:21.522Z,100185.79
2019-03-11T04:17:50.921Z,100167.75
2019-03-11T04:20:20.485Z,100177.05
2019-03-11T04:22:49.876Z,100164.25
2019-03-11T04:25:19.278Z,100172.16
2019-03-11T04:27:48.632Z,100172.16
2019-03-11T04:30:19.972Z,100165.66
2019-03-11T04:32:49.328Z,100179.84
2019-03-11T04:35:18.744Z,100185.98
2019-03-11T04:37:48.105Z,100197.78
2019-03-11T04:40:17.539Z,100197.78
2019-03-11T04:42:47.082Z,100219.00
2019-03-11T04:45:16.507Z,100193.05
2019-03-11T04:47:45.936Z,100230.83
2019-03-11T04:50:15.452Z,100230.83
2019-03-11T04:52:45.087Z,100249.23
2019-03-11T04:55:14.581Z,100249.34
2019-03-11T04:57:51.753Z,100249.34
2019-03-11T05:00:25.902Z,100247.13
2019-03-11T05:02:55.267Z,100244.74
2019-03-11T05:05:24.676Z,100261.56
2019-03-11T05:07:54.034Z,100261.56
2019-03-11T05:10:23.463Z,100257.92
2019-03-11T05:12:52.812Z,100270.58
2019-03-11T05:15:22.229Z,100256.72
2019-03-11T05:17:51.679Z,100268.52
2019-03-11T05:20:21.111Z,100268.52
2019-03-11T05:22:50.464Z,100257.36
2019-03-11T05:25:19.813Z,100267.05
2019-03-11T05:27:49.232Z,100273.59
2019-03-11T05:30:18.548Z,100266.63
2019-03-11T05:32:47.965Z,100249.25
2019-03-11T05:35:17.319Z,100249.25
2019-03-11T05:37:46.726Z,100264.08
2019-03-11T05:40:16.105Z,100259.23
2019-03-11T05:42:45.503Z,100259.23
2019-03-11T05:45:14.911Z,100257.17
2019-03-11T05:47:44.307Z,100263.17
2019-03-11T05:50:14.135Z,100263.17
2019-03-11T05:52:43.542Z,100255.95
2019-03-11T05:55:12.927Z,100263.39
2019-03-11T05:57:42.417Z,100259.97
2019-03-11T06:00:15.174Z,100254.22
2019-03-11T06:02:44.562Z,100254.22
2019-03-11T06:05:13.922Z,100249.34
2019-03-11T06:07:43.324Z,100265.52
2019-03-11T06:10:12.733Z,100273.88
2019-03-11T06:12:42.113Z,100273.88
2019-03-11T06:15:11.492Z,100289.95
2019-03-11T06:17:41.028Z,100264.05
2019-03-11T06:20:39.527Z,100279.70
2019-03-11T06:23:10.201Z,100279.70
2019-03-11T06:25:39.542Z,100269.90
2019-03-11T06:28:08.922Z,100277.72
2019-03-11T06:30:38.480Z,100278.44
2019-03-11T06:33:07.878Z,100268.30
2019-03-11T06:35:37.309Z,100284.60
2019-03-11T06:38:06.705Z,100306.45
2019-03-11T06:40:36.059Z,100306.45
2019-03-11T06:43:05.476Z,100301.27
2019-03-11T06:45:34.830Z,100306.59
2019-03-11T06:48:04.195Z,100288.42
2019-03-11T06:50:33.617Z,100313.05
2019-03-11T06:53:02.984Z,100310.91
2019-03-11T06:55:32.395Z,100310.77
2019-03-11T06:58:01.756Z,100308.15
2019-03-11T07:00:31.190Z,100319.70
2019-03-11T07:03:00.575Z,100331.59
2019-03-11T07:05:29.973Z,100332.15
2019-03-11T07:07:59.375Z,100334.84
2019-03-11T07:10:28.855Z,100334.61
2019-03-11T07:12:58.194Z,100331.82
2019-03-11T07:15:27.609Z,100342.04
2019-03-11T07:17:56.970Z,100346.21
2019-03-11T07:20:26.417Z,100351.47
2019-03-11T07:22:55.772Z,100372.50
2019-03-11T07:25:25.221Z,100350.63
2019-03-11T07:27:54.619Z,100358.83
2019-03-11T07:30:24.042Z,100367.70
2019-03-11T07:32:53.428Z,100360.55
2019-03-11T07:35:22.998Z,100358.55
2019-03-11T07:37:52.395Z,100362.03
2019-03-11T07:40:29.624Z,100360.39
2019-03-11T07:42:52.872Z,100360.30
2019-03-11T07:45:22.260Z,100366.34
2019-03-11T07:47:51.692Z,100364.95
2019-03-11T07:50:21.185Z,100374.78
2019-03-11T07:52:50.969Z,100382.38
2019-03-11T07:55:20.527Z,100382.04
2019-03-11T07:57:50.374Z,100390.59
2019-03-11T08:00:19.996Z,100391.67
2019-03-11T08:02:49.608Z,100385.31
2019-03-11T08:05:19.657Z,100387.91
2019-03-11T08:07:49.411Z,100396.86
2019-03-11T08:10:19.008Z,100389.23
2019-03-11T08:12:48.651Z,100373.13
2019-03-11T08:15:18.199Z,100380.43
2019-03-11T08:17:47.846Z,100391.02
2019-03-11T08:20:17.423Z,100380.45
2019-03-11T08:22:47.194Z,100380.34
2019-03-11T08:25:16.932Z,100385.27
2019-03-11T08:27:46.715Z,100375.22
2019-03-11T08:30:16.352Z,100385.47
2019-03-11T08:32:46.873Z,100379.78
2019-03-11T08:35:16.682Z,100399.72
2019-03-11T08:37:48.170Z,100386.45
2019-03-11T08:40:17.899Z,100386.80
2019-03-11T08:42:47.734Z,100399.62
2019-03-11T08:45:17.813Z,100392.77
2019-03-11T08:47:47.998Z,100401.07
2019-03-11T08:50:18.137Z,100397.21
2019-03-11T08:52:47.942Z,100391.14
2019-03-11T08:55:17.579Z,100381.48
2019-03-11T08:57:47.492Z,100387.83
2019-03-11T09:00:17.207Z,100401.80
2019-03-11T09:02:46.715Z,100410.09
2019-03-11T09:05:16.438Z,100403.11
2019-03-11T09:07:46.040Z,100407.83
2019-03-11T09:10:15.642Z,100414.92
2019-03-11T09:12:45.243Z,100411.17
2019-03-11T09:15:14.896Z,100434.02
2019-03-11T09:17:44.448Z,100422.61
2019-03-11T09:20:14.210Z,100423.98
2019-03-11T09:22:43.917Z,100414.36
2019-03-11T09:25:14.453Z,100424.23
2019-03-11T09:27:43.990Z,100416.26
2019-03-11T09:30:15.876Z,100413.69
2019-03-11T09:32:45.566Z,100420.80
2019-03-11T09:35:15.342Z,100414.95
2019-03-11T09:37:45.009Z,100404.58
2019-03-11T09:40:15.169Z,100417.86
2019-03-11T09:42:44.847Z,100411.19
2019-03-11T09:45:14.785Z,100418.84
2019-03-11T09:47:44.473Z,100427.84
2019-03-11T09:50:14.106Z,100424.61
2019-03-11T09:52:43.769Z,100404.52
2019-03-11T09:55:13.677Z,100420.07
2019-03-11T09:57:43.382Z,100429.36
2019-03-11T10:00:18.620Z,100424.36
2019-03-11T10:02:52.872Z,100417.56
2019-03-11T10:05:20.085Z,100401.92
2019-03-11T10:07:49.847Z,100416.14
2019-03-11T10:10:19.524Z,100429.02
2019-03-11T10:12:50.027Z,100423.19
2019-03-11T10:15:19.635Z,100450.66
2019-03-11T10:17:49.376Z,100447.77
2019-03-11T10:20:18.969Z,100451.60
2019-03-11T10:22:48.769Z,100444.30
2019-03-11T10:25:18.399Z,100466.11
2019-03-11T10:27:48.275Z,100450.89
2019-03-11T10:30:18.224Z,100449.59
2019-03-11T10:32:47.819Z,100464.45
2019-03-11T10:35:32.789Z,100474.84
2019-03-11T10:37:48.944Z,100454.55
2019-03-11T10:40:19.937Z,100460.34
2019-03-11T10:42:49.706Z,100455.98
2019-03-11T10:45:30.617Z,100470.13
2019-03-11T10:47:50.924Z,100474.19
2019-03-11T10:50:20.651Z,100487.11
2019-03-11T10:52:50.288Z,100487.89
2019-03-11T10:55:20.159Z,100485.42
2019-03-11T10:57:49.907Z,100497.03
2019-03-11T11:00:22.113Z,100500.30
2019-03-11T11:02:51.897Z,100510.99
2019-03-11T11:05:21.770Z,100519.80
2019-03-11T11:07:51.547Z,100523.82
2019-03-11T11:10:21.195Z,100524.09
2019-03-11T11:12:50.835Z,100535.40
2019-03-11T11:15:21.715Z,100530.59
2019-03-11T11:17:51.385Z,100533.21
2019-03-11T11:20:21.065Z,100532.53
2019-03-11T11:22:50.714Z,100531.38
2019-03-11T11:25:20.247Z,100535.59
2019-03-11T11:27:49.931Z,100528.78
2019-03-11T11:30:21.503Z,100531.13
2019-03-11T11:32:51.285Z,100525.89
2019-03-11T11:35:20.930Z,100532.59
2019-03-11T11:37:50.491Z,100525.33
2019-03-11T11:40:21.807Z,100546.05
2019-03-11T11:42:51.349Z,100549.14
2019-03-11T11:45:21.219Z,100533.47
2019-03-11T11:47:51.902Z,100536.36
2019-03-11T11:50:21.875Z,100555.09
2019-03-11T11:52:51.584Z,100563.88
2019-03-11T11:55:21.741Z,100535.83
2019-03-11T11:57:51.297Z,100563.06
2019-03-11T12:00:26.568Z,100556.22
2019-03-11T12:02:56.163Z,100558.09
2019-03-11T12:05:25.931Z,100563.33
2019-03-11T12:07:55.568Z,100563.79
2019-03-11T12:10:25.224Z,100577.05
2019-03-11T12:12:54.867Z,100572.70
2019-03-11T12:15:24.653Z,100568.45
2019-03-11T12:17:54.312Z,100570.53
2019-03-11T12:20:24.371Z,100572.12
2019-03-11T12:22:54.033Z,100568.06
2019-03-11T12:25:23.656Z,100569.44
2019-03-11T12:27:54.573Z,100573.86
2019-03-11T12:30:25.372Z,100561.33
2019-03-11T12:32:55.020Z,100525.12
2019-03-11T12:35:24.798Z,100567.53
2019-03-11T12:37:54.589Z,100557.87
2019-03-11T12:40:24.338Z,100574.67
2019-03-11T12:42:53.984Z,100564.48
2019-03-11T12:45:23.629Z,100554.30
2019-03-11T12:47:53.286Z,100556.17
2019-03-11T12:50:23.144Z,100554.80
2019-03-11T12:52:53.237Z,100568.82
2019-03-11T12:55:22.998Z,100579.20
2019-03-11T12:57:52.747Z,100574.08
2019-03-11T13:00:22.560Z,100583.67
2019-03-11T13:02:52.379Z,100592.64
2019-03-11T13:05:22.057Z,100598.23
2019-03-11T13:07:51.474Z,100582.75
2019-03-11T13:10:21.494Z,100590.81
2019-03-11T13:12:51.255Z,100586.81
2019-03-11T13:15:20.995Z,100593.91
2019-03-11T13:17:50.708Z,100595.18
2019-03-11T13:20:23.632Z,100592.38
2019-03-11T13:22:53.293Z,100591.43
2019-03-11T13:25:22.942Z,100601.59
2019-03-11T13:27:52.472Z,100605.84
2019-03-11T13:30:22.257Z,100598.67
2019-03-11T13:32:51.916Z,100598.27
2019-03-11T13:35:21.467Z,100603.41
2019-03-11T13:37:51.087Z,100603.02
2019-03-11T13:40:20.656Z,100594.14
2019-03-11T13:42:50.384Z,100613.86
2019-03-11T13:45:19.992Z,100604.38
2019-03-11T13:47:49.764Z,100597.70
2019-03-11T13:50:19.453Z,100604.08
2019-03-11T13:52:49.080Z,100621.48
2019-03-11T13:55:18.758Z,100616.56
2019-03-11T13:57:48.204Z,100608.09
2019-03-11T14:00:18.121Z,100611.50
2019-03-11T14:02:47.635Z,100629.25
2019-03-11T14:05:17.019Z,100638.11
2019-03-11T14:07:46.473Z,100636.33
2019-03-11T14:10:15.861Z,100630.05
2019-03-11T14:12:45.285Z,100633.87
2019-03-11T14:15:14.742Z,100629.41
2019-03-11T14:17:44.144Z,100605.41
2019-03-11T14:20:13.570Z,100633.11
2019-03-11T14:22:42.932Z,100656.94
2019-03-11T14:25:12.411Z,100647.02
2019-03-11T14:27:41.756Z,100662.33
2019-03-11T14:30:12.062Z,100685.88
2019-03-11T14:32:41.492Z,100684.98
2019-03-11T14:35:11.273Z,100692.47
2019-03-11T14:37:40.632Z,100688.74
2019-03-11T14:40:10.716Z,100676.75
2019-03-11T14:42:40.169Z,100666.15
2019-03-11T14:45:11.561Z,100677.10
2019-03-11T14:47:40.932Z,100673.38
2019-03-11T14:50:10.610Z,100678.83
2019-03-11T14:52:39.998Z,100678.87
2019-03-11T14:55:09.472Z,100678.08
2019-03-11T14:57:38.866Z,100676.55
2019-03-11T15:00:10.545Z,100675.21
2019-03-11T15:02:39.932Z,100689.38
2019-03-11T15:05:09.472Z,100689.91
2019-03-11T15:07:38.932Z,100694.03
2019-03-11T15:10:09.523Z,100687.22
2019-03-11T15:12:38.948Z,100693.31
2019-03-11T15:15:10.512Z,100695.67
2019-03-11T15:17:39.914Z,100693.62
2019-03-11T15:20:09.366Z,100690.87
2019-03-11T15:22:38.835Z,100704.77
2019-03-11T15:25:08.463Z,100694.60
2019-03-11T15:27:37.882Z,100695.51
2019-03-11T15:30:08.483Z,100677.96
2019-03-11T15:32:37.889Z,100674.22
2019-03-11T15:35:08.475Z,100672.42
2019-03-11T15:37:37.899Z,100675.42
2019-03-11T15:40:07.595Z,100681.14
2019-03-11T15:42:37.284Z,100688.16
2019-03-11T15:45:07.048Z,100672.94
2019-03-11T15:47:36.484Z,100680.45
2019-03-11T15:50:09.015Z,100681.80
2019-03-11T15:52:38.891Z,100673.42
2019-03-11T15:55:09.312Z,100682.50
2019-03-11T15:57:39.309Z,100686.62
2019-03-11T16:00:10.827Z,100681.20
2019-03-11T16:02:40.266Z,100696.35
2019-03-11T16:05:09.626Z,100680.38
2019-03-11T16:07:39.007Z,100693.80
2019-03-11T16:10:16.809Z,100710.61
2019-03-11T16:12:41.033Z,100700.45
2019-03-11T16:15:10.491Z,100718.84
2019-03-11T16:17:39.851Z,100712.55
2019-03-11T16:20:10.489Z,100727.55
2019-03-11T16:22:39.864Z,100734.29
2019-03-11T16:25:10.099Z,100736.83
2019-03-11T16:27:39.443Z,100739.52
2019-03-11T16:30:12.014Z,100733.39
2019-03-11T16:32:57.914Z,100726.33
2019-03-11T16:35:12.609Z,100734.41
2019-03-11T16:37:41.973Z,100725.75
2019-03-11T16:40:11.745Z,100718.57
2019-03-11T16:42:41.173Z,100719.78
2019-03-11T16:45:11.120Z,100733.99
2019-03-11T16:47:40.481Z,100745.92
2019-03-11T16:50:12.521Z,100748.91
2019-03-11T16:52:41.911Z,100741.89
2019-03-11T16:55:12.295Z,100753.57
2019-03-11T16:57:41.664Z,100753.42
2019-03-11T17:00:15.982Z,100741.22
2019-03-11T17:02:45.339Z,100792.05
2019-03-11T17:05:14.786Z,100788.53
2019-03-11T17:07:44.137Z,100794.20
2019-03-11T17:10:13.888Z,100787.88
2019-03-11T17:12:43.280Z,100794.55
2019-03-11T17:15:12.702Z,100789.69
2019-03-11T17:17:42.088Z,100794.02
2019-03-11T17:20:12.185Z,100796.61
2019-03-11T17:22:41.536Z,100795.56
2019-03-11T17:25:11.451Z,100793.50
2019-03-11T17:27:40.813Z,100790.27
2019-03-11T17:30:12.131Z,100809.59
2019-03-11T17:32:41.524Z,100816.81
2019-03-11T17:35:10.951Z,100822.51
2019-03-11T17:37:40.380Z,100822.83
2019-03-11T17:40:11.488Z,100836.89
2019-03-11T17:42:40.936Z,100830.09
2019-03-11T17:45:10.821Z,100830.63
2019-03-11T17:47:40.335Z,100850.05
2019-03-11T17:50:11.258Z,100849.43
2019-03-11T17:52:40.668Z,100857.23
2019-03-11T17:55:10.181Z,100861.96
2019-03-11T17:57:39.644Z,100856.62
2019-03-11T18:00:13.761Z,100874.15
2019-03-11T18:02:43.183Z,100864.88
2019-03-11T18:05:12.580Z,100864.53
2019-03-11T18:07:42.153Z,100881.00
2019-03-11T18:10:11.518Z,100898.19
2019-03-11T18:12:40.990Z,100892.88
2019-03-11T18:15:12.737Z,100886.46
2019-03-11T18:17:41.510Z,100891.97
2019-03-11T18:20:11.775Z,100880.84
2019-03-11T18:22:41.163Z,100906.02
2019-03-11T18:25:11.963Z,100906.18
2019-03-11T18:27:44.240Z,100923.61
2019-03-11T18:30:16.018Z,100906.02
2019-03-11T18:32:45.661Z,100921.13
2019-03-11T18:35:15.072Z,100914.73
2019-03-11T18:37:44.539Z,100904.31
2019-03-11T18:40:14.054Z,100919.17
2019-03-11T18:42:43.572Z,100939.34
2019-03-11T18:45:13.039Z,100937.84
2019-03-11T18:47:42.590Z,100925.33
2019-03-11T18:50:12.553Z,100951.06
2019-03-11T18:52:41.993Z,100947.95
2019-03-11T18:55:11.722Z,100951.44
2019-03-11T18:57:41.980Z,100961.30
2019-03-11T19:00:15.177Z,100965.63
2019-03-11T19:02:46.981Z,100983.62
2019-03-11T19:05:20.028Z,100977.67
2019-03-11T19:07:49.844Z,100981.16
2019-03-11T19:10:19.473Z,100993.25
2019-03-11T19:12:48.813Z,100994.97
2019-03-11T19:15:18.281Z,100997.14
2019-03-11T19:17:47.661Z,101005.55
2019-03-11T19:20:18.364Z,100997.98
2019-03-11T19:22:47.791Z,100987.79
2019-03-11T19:25:17.417Z,100986.45
2019-03-11T19:27:46.822Z,100998.64
2019-03-11T19:30:18.675Z,100986.73
2019-03-11T19:32:48.182Z,100983.44
2019-03-11T19:35:18.412Z,101005.64
2019-03-11T19:37:48.008Z,101007.34
2019-03-11T19:40:18.286Z,101007.66
2019-03-11T19:42:47.773Z,101004.53
2019-03-11T19:45:22.362Z,101001.95
2019-03-11T19:47:51.746Z,101014.52
2019-03-11T19:50:21.266Z,101007.25
2019-03-11T19:52:58.618Z,100999.87
2019-03-11T19:55:22.090Z,101010.17
2019-03-11T19:58:02.338Z,101009.67
2019-03-11T20:00:31.845Z,101000.66
2019-03-11T20:03:01.489Z,101000.66
2019-03-11T20:05:31.118Z,101027.40
2019-03-11T20:08:00.654Z,101027.40
2019-03-11T20:10:30.242Z,101011.25
2019-03-11T20:13:00.124Z,101028.80
2019-03-11T20:15:29.780Z,101021.07
2019-03-11T20:17:59.524Z,101020.60
2019-03-11T20:20:29.277Z,101018.43
2019-03-11T20:22:58.952Z,101019.22
2019-03-11T20:25:28.849Z,101032.89
2019-03-11T20:27:58.622Z,101020.94
2019-03-11T20:30:28.296Z,101038.52
2019-03-11T20:32:57.873Z,101025.70
2019-03-11T20:35:27.701Z,101048.81
2019-03-11T20:37:57.252Z,101048.81
2019-03-11T20:40:26.899Z,101027.64
2019-03-11T20:42:56.597Z,101041.63
2019-03-11T20:45:26.309Z,101043.84
2019-03-11T20:47:56.000Z,101043.84
2019-03-11T20:50:25.559Z,101051.92
2019-03-11T20:52:55.329Z,101043.00
2019-03-11T20:55:24.973Z,101043.00
2019-03-11T20:57:54.725Z,101057.04
2019-03-11T21:00:24.435Z,101062.70
2019-03-11T21:02:54.113Z,101062.70
2019-03-11T21:05:25.990Z,101049.22
2019-03-11T21:07:55.856Z,101058.80
2019-03-11T21:10:25.501Z,101058.80
2019-03-11T21:12:55.119Z,101077.05
2019-03-11T21:15:24.871Z,101077.05
2019-03-11T21:17:54.563Z,101066.98
2019-03-11T21:20:24.251Z,101073.20
2019-03-11T21:22:53.928Z,101066.33
2019-03-11T21:25:23.555Z,101066.33
2019-03-11T21:27:53.272Z,101068.88
2019-03-11T21:30:23.063Z,101067.75
2019-03-11T21:32:52.851Z,101067.75
2019-03-11T21:35:22.637Z,101047.84
2019-03-11T21:37:52.583Z,101069.77
2019-03-11T21:40:22.411Z,101064.54
2019-03-11T21:42:52.121Z,101061.31
2019-03-11T21:45:33.422Z,101061.31
2019-03-11T21:47:53.312Z,101064.39
2019-03-11T21:50:23.234Z,101055.58
2019-03-11T21:52:52.966Z,101063.77
2019-03-11T21:55:22.611Z,101063.77
2019-03-11T21:57:52.319Z,101056.08
2019-03-11T22:00:32.809Z,101040.65
2019-03-11T22:02:54.225Z,101040.65
2019-03-11T22:05:23.864Z,101059.16
2019-03-11T22:07:53.532Z,101059.16
2019-03-11T22:10:23.218Z,101032.08
2019-03-11T22:12:52.867Z,101032.08
2019-03-11T22:15:22.608Z,101051.59
2019-03-11T22:17:52.307Z,101051.59
2019-03-11T22:20:21.918Z,101055.66
2019-03-11T22:22:51.624Z,101054.43
2019-03-11T22:25:21.371Z,101054.43
2019-03-11T22:27:51.018Z,101050.88
2019-03-11T22:30:20.974Z,101060.58
2019-03-11T22:32:50.644Z,101064.39
2019-03-11T22:35:20.547Z,101078.88
2019-03-11T22:37:50.199Z,101078.88
2019-03-11T22:40:19.856Z,101081.20
2019-03-11T22:42:49.432Z,101084.08
2019-03-11T22:45:20.732Z,101100.91
2019-03-11T22:47:50.612Z,101112.84
2019-03-11T22:50:20.250Z,101123.77
2019-03-11T22:52:49.822Z,101123.77
2019-03-11T22:55:19.623Z,101139.05
2019-03-11T22:57:49.354Z,101155.98
2019-03-11T23:00:29.302Z,101155.98
2019-03-11T23:02:59.027Z,101151.34
2019-03-11T23:05:28.662Z,101168.72
2019-03-11T23:07:58.220Z,101173.95
2019-03-11T23:10:27.855Z,101177.59
2019-03-11T23:12:57.438Z,101175.61
2019-03-11T23:15:26.986Z,101176.47
2019-03-11T23:17:56.644Z,101176.47
2019-03-11T23:20:26.320Z,101183.73
2019-03-11T23:22:55.970Z,101183.38
2019-03-11T23:25:25.627Z,101179.11
2019-03-11T23:27:55.270Z,101179.11
2019-03-11T23:30:25.050Z,101169.50
2019-03-11T23:32:54.822Z,101189.61
2019-03-11T23:35:24.579Z,101196.13
2019-03-11T23:37:54.198Z,101189.53
2019-03-11T23:40:23.905Z,101208.76
2019-03-11T23:42:53.557Z,101208.76
2019-03-11T23:45:23.199Z,101210.66
2019-03-11T23:47:52.754Z,101213.02
2019-03-11T23:50:22.531Z,101213.98
2019-03-11T23:52:52.180Z,101222.02
2019-03-11T23:55:21.847Z,101213.58
2019-03-11T23:57:51.573Z,101224.02
